createdAt,value
2022-11-27T00:05:33.543Z,4.9
2022-11-27T00:15:36.141Z,4.8
2022-11-27T00:25:37.989Z,4.8
2022-11-27T00:35:40.213Z,4.6
2022-11-27T00:45:42.306Z,4.7
2022-11-27T00:55:44.952Z,4.7
2022-11-27T01:05:46.909Z,4.6
2022-11-27T01:15:49.293Z,4.6
2022-11-27T01:25:51.829Z,4.5
2022-11-27T01:35:54.235Z,4.3
2022-11-27T01:45:56.682Z,4.3
2022-11-27T01:55:58.888Z,3.9
2022-11-27T02:06:01.047Z,3.8
2022-11-27T02:16:03.524Z,3.7
2022-11-27T02:26:05.515Z,3.7
2022-11-27T02:36:07.475Z,3.6
2022-11-27T02:46:09.516Z,3.4
2022-11-27T02:56:12.124Z,3.2
2022-11-27T03:06:14.549Z,2.9
2022-11-27T03:16:16.542Z,2.4
2022-11-27T03:26:18.356Z,2.5
2022-11-27T03:36:20.636Z,2.4
2022-11-27T03:46:22.919Z,2.1
2022-11-27T03:56:24.960Z,2.3
2022-11-27T04:06:26.965Z,2.3
2022-11-27T04:16:28.919Z,2.2
2022-11-27T04:26:30.918Z,2.2
2022-11-27T04:36:36.125Z,2.3
2022-11-27T04:46:34.607Z,2.7
2022-11-27T04:56:37.243Z,3.2
2022-11-27T05:06:39.499Z,3.6
2022-11-27T05:16:41.593Z,3.9
2022-11-27T05:26:43.519Z,4
2022-11-27T05:36:46.011Z,4.3
2022-11-27T05:46:48.166Z,4.5
2022-11-27T05:56:50.105Z,4.8
2022-11-27T06:06:52.111Z,4.9
2022-11-27T06:16:54.436Z,5
2022-11-27T06:26:56.214Z,4.9
2022-11-27T06:47:00.333Z,5
2022-11-27T06:57:02.387Z,4.8
2022-11-27T07:07:04.316Z,4.6
2022-11-27T07:17:06.192Z,4.6
2022-11-27T07:27:08.865Z,4.6
2022-11-27T07:47:12.664Z,4.9
2022-11-27T07:57:14.532Z,5
2022-11-27T08:07:16.454Z,5.4
2022-11-27T08:17:18.537Z,5.5
2022-11-27T08:27:20.469Z,5.6
2022-11-27T08:37:22.929Z,5.8
2022-11-27T08:47:25.588Z,6.3
2022-11-27T08:57:27.433Z,6.6
2022-11-27T09:07:29.134Z,6.8
2022-11-27T09:17:31.216Z,6.9
2022-11-27T09:27:33.084Z,7.3
2022-11-27T09:37:34.853Z,7.6
2022-11-27T09:47:41.115Z,7.8
2022-11-27T09:57:39.205Z,7.9
2022-11-27T10:07:40.991Z,8
2022-11-27T10:10:35.436Z,8
2022-11-27T10:17:53.175Z,8.1
2022-11-27T10:27:55.574Z,8.3
2022-11-27T10:38:00.964Z,8.4
2022-11-27T10:47:59.547Z,8.6
2022-11-27T10:58:01.303Z,8.7
2022-11-27T11:08:03.577Z,8.8
2022-11-27T11:18:05.796Z,8.9
2022-11-27T11:28:08.104Z,8.9
2022-11-27T11:38:10.627Z,9
2022-11-27T11:48:13.201Z,9.1
2022-11-27T11:58:15.371Z,9.3
2022-11-27T12:08:17.083Z,9.3
2022-11-27T12:18:18.875Z,9.4
2022-11-27T12:28:21.311Z,9.4
2022-11-27T12:38:23.240Z,9.5
2022-11-27T12:48:25.337Z,9.5
2022-11-27T12:58:27.700Z,9.4
2022-11-27T13:08:29.550Z,9.4
2022-11-27T13:18:31.276Z,9.3
2022-11-27T13:28:33.261Z,9.3
2022-11-27T13:38:35.770Z,9.3
2022-11-27T13:48:37.651Z,9.3
2022-11-27T13:58:39.453Z,9.2
2022-11-27T14:08:41.393Z,9.2
2022-11-27T14:18:43.529Z,9.2
2022-11-27T14:28:45.745Z,9.2
2022-11-27T14:38:47.934Z,9.2
2022-11-27T14:48:50.512Z,9.1
2022-11-27T14:58:52.305Z,9.1
2022-11-27T15:09:16.173Z,9
2022-11-27T15:18:56.844Z,8.9
2022-11-27T15:28:59.343Z,8.7
2022-11-27T15:39:02.020Z,8.6
2022-11-27T15:49:04.427Z,8.3
2022-11-27T15:59:06.280Z,8.1
2022-11-27T16:19:10.628Z,8
2022-11-27T16:29:13.242Z,7.8
2022-11-27T16:39:15.661Z,7.8
2022-11-27T16:49:18.093Z,7.9
2022-11-27T16:59:20.520Z,7.9
2022-11-27T17:19:25.627Z,7.9
2022-11-27T17:39:29.679Z,7.9
2022-11-27T17:49:32.080Z,7.9
2022-11-27T17:59:34.512Z,7.9
2022-11-27T18:19:38.180Z,7.9
2022-11-27T18:29:40.900Z,7.8
2022-11-27T18:39:43.389Z,7.7
2022-11-27T18:49:45.803Z,7.7
2022-11-27T18:59:47.610Z,7.7
2022-11-27T19:09:49.606Z,7.8
2022-11-27T19:19:54.520Z,7.9
2022-11-27T19:29:53.566Z,7.9
2022-11-27T19:39:55.648Z,8
2022-11-27T20:00:00.236Z,7.9
2022-11-27T20:10:02.824Z,7.8
2022-11-27T20:20:04.860Z,7.8
2022-11-27T20:30:06.798Z,7.7
2022-11-27T20:40:09.489Z,7.7
2022-11-27T20:50:11.720Z,7.5
2022-11-27T21:00:13.704Z,7.5
2022-11-27T21:10:15.998Z,7.2
2022-11-27T21:20:18.188Z,7.2
2022-11-27T21:30:20.066Z,7
2022-11-27T21:40:22.176Z,6.9
2022-11-27T21:50:23.916Z,7
2022-11-27T22:00:26.267Z,7.1
2022-11-27T22:10:28.558Z,7.2
2022-11-27T22:20:31.162Z,7.5
2022-11-27T22:30:33.807Z,7.7
2022-11-27T22:40:36.272Z,8
2022-11-27T22:50:38.037Z,8
2022-11-27T23:00:39.729Z,8
2022-11-27T23:10:41.989Z,8.1
2022-11-27T23:20:44.603Z,8
2022-11-27T23:30:46.519Z,7.9
2022-11-27T23:40:49.146Z,7.9
2022-11-27T23:50:51.684Z,7.5
